Spot Road, Arizona (BMGR) Weather observations

Data are for 10 minute period ending at time listed.
 Day   Time   Solar   Ave.   Ave.  Ave.  Vector  Max.   Total    
  of    of     Rad.   Air    Rel.  Wind   Wind   Wind  Precip.   
Year   Day            Temp.  Hum.  Speed  Dir.   Gust            
2026   (MST)  Kw/m2    F      %     mph   deg.    mph    in.     
-----------------------------------------------------------------
 124   11:35   0.28   70.5    40   10.9   164    14.4    0.00 
 124   11:40   0.25   70.3    40   10.8   173    14.4    0.00 
 124   11:45   0.27   70.7    40   11.6   184    17.2    0.00 
 124   11:50   0.27   70.5    44   12.4   169    16.0    0.00 
 124   11:55   0.24   70.6    44   11.8   190    16.0    0.00 
 124   12:00   0.26   70.3    47   12.6   190    14.4    0.00 
 124   12:05   0.28   70.6    47   10.2   177    14.4    0.00 
 124   12:10   0.26   70.4    46   10.8   204    14.9    0.00 
 124   12:15   0.26   70.5    48   11.2   203    14.9    0.00 
 124   12:20   0.28   70.6    46   12.6   194    14.9    0.00 
 124   12:25   0.30   70.7    46   12.7   195    18.9    0.00 
 124   12:30   0.30   70.7    45   15.3   191    18.3    0.00 
 124   12:35   0.30   70.5    45   12.6   185    17.7    0.00 
 124   12:40   0.30   70.7    44   14.3   195    18.9    0.00 
 124   12:45   0.29   70.8    44   11.5   186    13.8    0.00 
 124   12:50   0.32   70.8    44    7.7   190    11.6    0.00 
 124   12:55   0.38   71.7    42    8.5   170    13.3    0.00 
 124   13:00   0.37   71.5    42    9.2   196    14.9    0.00 
 124   13:05   0.34   71.5    42    8.0   209    12.7    0.00 
 124   13:10   0.34   71.3    42   10.7   217    13.8    0.00 
 124   13:15   0.36   71.4    42    7.0   178    10.5    0.00 
 124   13:20   0.37   71.8    41    4.5   202     7.1    0.00 
 124   13:25   0.35   71.8    42    6.7   214    11.0    0.00 
 124   13:30   0.35   72.0    42    7.9   184    11.6    0.00 
 124   13:35   0.41   72.1    42    7.2   180    10.5    0.00 
 124   13:40   0.41   72.0    42    7.9   181    11.6    0.00 
 124   13:45   0.40   71.8    42    6.2   197    11.6    0.00 
 124   13:50   0.47   72.3    42   10.9   166    16.6    0.00 
 124   13:55   0.44   72.4    42    9.9   177    14.9    0.00 
 124   14:00   0.43   72.7    42   11.0   170    15.5    0.00 
 124   14:05   0.43   72.6    41    8.3   186    12.7    0.00 
 124   14:10   0.46   73.1    40    7.2   202    11.6    0.00 
 124   14:15   0.51   73.1    41    8.6   191    12.7    0.00 
 124   14:20   0.44   73.1    42    8.4   173    12.1    0.00 
 124   14:25   0.40   73.4    42    5.8   157    11.6    0.00 
 124   14:30   0.41   74.2    40    9.1   188    13.3    0.00 
 124   14:35   0.38   73.6    41    8.2   185    13.3    0.00 
 124   14:40   0.37   73.4    41    9.5   190    14.4    0.00 
 124   14:45   0.38   73.8    40    6.6   186     8.8    0.00 
 124   14:50   0.41   74.0    41    4.5   175     8.8    0.00 
 124   14:55   0.43   74.3    40    9.3   185    13.3    0.00 
 124   15:00   0.45   73.9    41    8.3   186    14.9    0.00 
 124   15:05   0.46   74.2    41   11.6   186    15.5    0.00 
 124   15:10   0.49   74.3    41    9.4   179    14.4    0.00 
 124   15:15   0.52   75.1    40    9.3   189    14.9    0.00 
 124   15:20   0.46   74.7    40    6.8   200    11.6    0.00 
 124   15:25   0.37   75.2    40    7.6   188    11.6    0.00 
 124   15:30   0.36   75.2    40    9.3   188    13.3    0.00 
 124   15:35   0.35   75.4    40    7.8   209    12.7    0.00 
 124   15:40   0.37   76.2    39    6.8   191    13.8    0.00 
 124   15:45   0.35   75.9    40   10.5   190    17.2    0.00 
 124   15:50   0.28   75.1    40    6.4   198    13.3    0.00 
 124   15:55   0.27   75.8    39    6.9   154    14.4    0.00 
 124   16:00   0.25   75.6    40   10.2   192    14.9    0.00 
 124   16:05   0.22   75.3    40    8.9   189    12.7    0.00 
 124   16:10   0.20   75.7    39   11.0   209    14.4    0.00 
 124   16:15   0.22   75.8    39    8.8   200    11.6    0.00 
 124   16:20   0.21   75.9    38    9.9   209    12.7    0.00 
 124   16:25   0.20   75.6    38    6.8   229    10.5    0.00 
 124   16:30   0.19   75.8    38    8.7   221    13.3    0.00 
 124   16:35   0.18   75.7    39    8.5   215    13.3    0.00 
 124   16:40   0.18   76.3    38   10.8   207    16.0    0.00 
 124   16:45   0.19   76.0    38   12.0   211    16.6    0.00 
 124   16:50   0.20   75.8    37   14.0   216    18.3    0.00 
 124   16:55   0.19   76.0    37   13.9   200    19.4    0.00 
 124   17:00   0.18   76.1    36   11.2   190    16.0    0.00 
 124   17:05   0.18   76.1    36   10.8   198    14.9    0.00 
 124   17:10   0.19   76.2    35   10.8   203    14.4    0.00 
 124   17:15   0.17   76.9    32   10.3   211    15.5    0.00 
 124   17:20   0.17   77.1    30   12.6   201    16.0    0.00 
 124   17:25   0.15   77.2    30   10.4   200    15.5    0.00 
 124   17:30   0.15   77.2    30   14.7   189    18.9    0.00 
 124   17:35   0.14   76.9    30   11.1   180    17.2    0.00 
 124   17:40   0.13   76.9    29   10.2   173    15.5    0.00 
 124   17:45   0.11   77.1    26   13.0   170    17.2    0.00 
 124   17:50   0.10   77.3    26   12.8   164    16.6    0.00 
 124   17:55   0.09   77.3    26   15.3   169    18.9    0.00 
 124   18:00   0.08   76.8    25   15.3   169    20.5    0.00 
 124   18:05   0.07   76.9    24   14.7   164    20.5    0.00 
 124   18:10   0.07   76.8    23   17.1   164    21.1    0.00 
 124   18:15   0.06   76.7    22   16.1   164    18.9    0.00 
 124   18:20   0.05   76.8    21   15.1   168    18.3    0.00 
 124   18:25   0.04   76.6    21   16.6   157    19.4    0.00 
 124   18:30   0.04   76.4    21   16.0   158    18.9    0.00 
 124   18:35   0.03   76.4    22   14.6   161    18.9    0.00 
 124   18:40   0.03   76.3    22   14.8   158    17.7    0.00 
 124   18:45   0.03   76.1    21   14.8   155    18.3    0.00 
 124   18:50   0.02   76.1    21   15.0   163    18.9    0.00 
 124   18:55   0.02   76.0    20   14.5   169    17.2    0.00 
 124   19:00   0.01   76.0    20   12.9   170    15.5    0.00 
 124   19:05   0.01   75.8    20   10.9   176    13.3    0.00 
 124   19:10   0.00   75.7    20   11.0   178    12.7    0.00 
 124   19:15   0.00   75.7    20   12.2   179    14.4    0.00 
 124   19:20   0.00   75.6    21   11.4   175    14.4    0.00 
 124   19:25   0.00   75.4    21   11.6   176    13.8    0.00 
 124   19:30   0.00   75.3    22   11.6   176    14.4    0.00 
 124   19:35   0.00   75.2    22   12.6   177    14.9    0.00 
 124   19:40   0.00   75.0    22   12.2   184    14.4    0.00 
 124   19:45   0.00   74.9    22   12.7   185    14.9    0.00 
 124   19:50   0.00   74.8    22   12.8   184    15.5    0.00 
 124   19:55   0.00   74.6    22   12.6   181    16.0    0.00 
 124   20:00   0.00   74.4    22   11.5   183    13.8    0.00 
 124   20:05   0.00   74.3    23   10.6   184    12.7    0.00 
 124   20:10   0.00   74.2    23   10.8   184    12.7    0.00 
 124   20:15   0.00   74.1    23   10.2   185    12.7    0.00 
 124   20:20   0.00   74.0    23    8.9   185    11.0    0.00 
 124   20:25   0.00   73.9    24    7.8   190     9.3    0.00 
 124   20:30   0.00   73.8    24    7.2   192     8.8    0.00 
 124   20:35   0.00   73.7    24    6.2   190     7.7    0.00 
 124   20:40   0.00   73.7    24    6.0   188     7.7    0.00 
 124   20:45   0.00   73.6    24    7.0   191     8.8    0.00 
 124   20:50   0.00   73.6    25    7.7   193     9.9    0.00 
 124   20:55   0.00   73.4    25    7.1   196     8.2    0.00 
 124   21:00   0.00   73.1    25    6.1   192     7.7    0.00 
 124   21:05   0.00   72.9    25    5.9   193     7.7    0.00 
 124   21:10   0.00   72.8    25    6.5   181     8.2    0.00 
 124   21:15   0.00   72.7    26    6.5   158     7.7    0.00 
 124   21:20   0.00   72.9    27    8.6   159    11.6    0.00 
 124   21:25   0.00   73.0    32   10.9   163    17.2    0.00 
 124   21:30   0.00   72.9    42   15.0   162    17.7    0.00 
 124   21:35   0.00   72.6    44   14.4   162    18.9    0.00 
 124   21:40   0.00   72.6    44   13.2   156    16.6    0.00 
 124   21:45   0.00   72.6    43   13.5   164    16.6    0.00 
 124   21:50   0.00   72.6    43   11.9   156    15.5    0.00 
 124   21:55   0.00   72.3    43   13.1   153    16.0    0.00 
 124   22:00   0.00   72.1    43   11.8   158    15.5    0.00 
 124   22:05   0.00   71.9    43   13.8   149    17.7    0.00 
 124   22:10   0.00   71.7    42   12.8   154    16.6    0.00 
 124   22:15   0.00   71.5    41   13.7   164    17.7    0.00 
 124   22:20   0.00   71.4    41   16.2   159    20.0    0.00 
 124   22:25   0.00   71.3    41   16.4   157    20.0    0.00 
 124   22:30   0.00   71.1    42   15.9   158    18.9    0.00 
 124   22:35   0.00   70.9    42   16.0   154    20.0    0.00 
 124   22:40   0.00   70.8    43   16.1   159    20.5    0.00 
 124   22:45   0.00   70.6    44   17.6   161    22.2    0.00 
 124   22:50   0.00   70.4    44   16.3   157    19.4    0.00 
 124   22:55   0.00   70.2    45   15.4   148    18.9    0.00 
 124   23:00   0.00   70.0    46   16.5   152    20.5    0.00 
 124   23:05   0.00   69.8    48   16.4   155    20.5    0.00 
 124   23:10   0.00   69.7    49   17.1   156    21.1    0.00 
 124   23:15   0.00   69.5    51   17.7   156    21.1    0.00 
 124   23:20   0.00   69.3    52   15.9   154    20.0    0.00 
 124   23:25   0.00   69.0    54   15.5   155    20.0    0.00 
 124   23:30   0.00   68.7    55   15.8   152    18.3    0.00 
 124   23:35   0.00   68.4    56   16.1   157    20.5    0.00 
 124   23:40   0.00   68.2    56   13.9   166    19.4    0.00 
 124   23:45   0.00   68.0    56   12.3   153    15.5    0.00 
 124   23:50   0.00   67.9    56   13.5   149    17.2    0.00 
 124   23:55   0.00   67.8    55   15.1   154    20.0    0.00 
 125    0:00   0.00   67.8    54   15.9   155    19.4    0.00 
 125    0:05   0.00   67.7    53   14.3   152    17.2    0.00 
 125    0:10   0.00   67.7    53   12.3   152    14.9    0.00 
 125    0:15   0.00   67.7    53   10.6   157    13.8    0.00 
 125    0:20   0.00   67.7    54   11.8   160    16.6    0.00 
 125    0:25   0.00   67.8    54   13.4   157    17.7    0.00 
 125    0:30   0.00   67.7    54    9.8   166    12.7    0.00 
 125    0:35   0.00   67.8    53   11.1   176    14.4    0.00 
 125    0:40   0.00   67.7    52   10.0   182    12.7    0.00 
 125    0:45   0.00   67.5    52    8.5   182    11.0    0.00 
 125    0:50   0.00   67.3    53    7.7   185     9.3    0.00 
 125    0:55   0.00   67.2    53    9.6   182    11.6    0.00 
 125    1:00   0.00   67.1    53    8.8   181    11.0    0.00 
 125    1:05   0.00   67.1    52    8.5   182    10.5    0.00 
 125    1:10   0.00   67.0    53    7.8   188     8.8    0.00 
 125    1:15   0.00   67.1    51    9.2   198    12.1    0.00 
 125    1:20   0.00   67.3    44   10.8   200    12.7    0.00 
 125    1:25   0.00   67.4    42   11.8   202    13.8    0.00 
 125    1:30   0.00   67.3    40    9.9   209    12.1    0.00 
 125    1:35   0.00   66.9    38   10.2   215    12.7    0.00 
 125    1:40   0.00   66.7    38    9.6   215    14.4    0.00 
 125    1:45   0.00   66.4    39    9.2   219    12.7    0.00 
 125    1:50   0.00   66.2    39    9.1   218    13.8    0.00 
 125    1:55   0.00   66.2    39   10.8   226    15.5    0.00 
 125    2:00   0.00   66.1    39   10.2   227    12.7    0.00 
 125    2:05   0.00   65.9    39   11.2   228    14.4    0.00 
 125    2:10   0.00   65.7    39   10.1   231    12.1    0.00 
 125    2:15   0.00   65.5    39    8.3   228    11.0    0.00 
 125    2:20   0.00   65.3    40    5.9   221     8.2    0.00 
 125    2:25   0.00   65.0    40    4.6   217     5.4    0.00 
 125    2:30   0.00   64.7    40    4.7   216     7.7    0.00 
 125    2:35   0.00   64.4    40    4.9   216     6.5    0.00 
 125    2:40   0.00   64.1    41    5.7   217     7.1    0.00 
 125    2:45   0.00   63.9    41    6.3   224     8.2    0.00 
 125    2:50   0.00   63.7    41    7.3   230    10.5    0.00 
 125    2:55   0.00   63.7    41    7.8   228     9.9    0.00 
 125    3:00   0.00   63.1    42    7.2   227     8.2    0.00 
 125    3:05   0.00   62.9    42    8.6   225    11.6    0.00 
 125    3:10   0.00   63.0    42    9.1   223    11.6    0.00 
 125    3:15   0.00   62.8    42    9.0   222    11.0    0.00 
 125    3:20   0.00   62.7    42   10.1   224    13.8    0.00 
 125    3:25   0.00   62.8    42   12.3   225    17.2    0.00 
 125    3:30   0.00   63.0    42   15.5   223    18.3    0.00 
 125    3:35   0.00   63.0    42   14.5   226    17.2    0.00 
 125    3:40   0.00   62.9    42   12.8   226    16.0    0.00 
 125    3:45   0.00   62.7    42   12.2   227    14.9    0.00 
 125    3:50   0.00   62.7    43   11.3   222    15.5    0.00 
 125    3:55   0.00   62.7    43   10.3   220    14.4    0.00 
 125    4:00   0.00   62.7    43   10.8   217    13.3    0.00 
 125    4:05   0.00   62.7    44    9.7   212    13.3    0.00 
 125    4:10   0.00   62.7    44    9.2   207    11.6    0.00 
 125    4:15   0.00   62.6    44    9.9   210    12.7    0.00 
 125    4:20   0.00   62.5    44   11.7   216    15.5    0.00 
 125    4:25   0.00   62.3    45   12.7   217    17.2    0.00 
 125    4:30   0.00   62.2    45   14.0   221    16.6    0.00 
 125    4:35   0.00   62.1    46   14.3   216    18.3    0.00 
 125    4:40   0.00   62.0    46   13.0   213    16.0    0.00 
 125    4:45   0.00   61.9    46   13.0   212    16.6    0.00 
 125    4:50   0.00   61.8    46   12.5   210    16.6    0.00 
 125    4:55   0.00   61.8    46   12.1   205    14.9    0.00 
 125    5:00   0.00   61.8    46   12.8   202    16.0    0.00 
 125    5:05   0.00   61.7    46   12.1   204    17.2    0.00 
 125    5:10   0.00   61.7    46   12.9   204    18.3    0.00 
 125    5:15   0.00   61.7    46   12.7   211    15.5    0.00 
 125    5:20   0.00   61.7    46   12.3   212    15.5    0.00 
 125    5:25   0.00   61.6    46   11.8   216    16.0    0.00 
 125    5:30   0.00   61.5    47   10.3   219    15.5    0.00 
 125    5:35   0.00   61.4    47    7.9   215    11.0    0.00 
 125    5:40   0.00   61.4    47    9.0   215    12.1    0.00 
 125    5:45   0.00   61.4    47    9.4   212    13.3    0.00 
 125    5:50   0.00   61.5    47    7.2   213    10.5    0.00 
 125    5:55   0.00   61.6    47    6.6   216     9.9    0.00 
 125    6:00   0.01   61.6    46    7.1   217    11.0    0.00 
 125    6:05   0.01   61.7    46    8.9   221    11.6    0.00 
 125    6:10   0.01   61.8    46    9.1   227    12.1    0.00 
 125    6:15   0.02   61.9    46    8.7   229    11.0    0.00 
 125    6:20   0.03   62.0    46    9.7   225    11.6    0.00 
 125    6:25   0.03   62.1    46    8.8   223     9.9    0.00 
 125    6:30   0.04   62.1    46    8.9   226    11.0    0.00 
 125    6:35   0.06   62.3    46   10.4   226    12.7    0.00 
 125    6:40   0.07   62.4    46    9.9   222    12.7    0.00 
 125    6:45   0.06   62.4    46    9.8   220    12.7    0.00 
 125    6:50   0.06   62.4    46   10.1   222    14.4    0.00 
 125    6:55   0.07   62.3    46   12.3   223    16.0    0.00 
 125    7:00   0.13   62.3    46   13.5   224    18.3    0.00 
 125    7:05   0.19   62.6    46   13.0   219    16.0    0.00 
 125    7:10   0.14   62.6    46   13.5   218    17.2    0.00 
 125    7:15   0.15   62.7    45   13.5   225    16.6    0.00 
 125    7:20   0.18   63.0    45   14.0   229    17.7    0.00 
 125    7:25   0.19   63.2    45   12.9   232    16.6    0.00 
 125    7:30   0.17   63.4    44   10.6   230    15.5    0.00 
 125    7:35   0.26   63.6    44    9.4   223    13.8    0.00 
 125    7:40   0.33   64.1    44    9.8   227    13.8    0.00 
 125    7:45   0.36   64.4    43   10.8   226    15.5    0.00 
 125    7:50   0.26   64.5    43   10.7   231    14.9    0.00 
 125    7:55   0.19   64.4    43   11.4   221    13.3    0.00 
 125    8:00   0.18   64.5    42   11.6   222    15.5    0.00 
 125    8:05   0.18   64.5    42    9.9   223    15.5    0.00 
 125    8:10   0.36   64.7    42   11.5   227    14.4    0.00 
 125    8:15   0.25   64.9    41   11.3   224    16.0    0.00 
 125    8:20   0.24   64.9    41   11.4   222    17.2    0.00 
 125    8:25   0.28   65.4    40   11.8   220    17.2    0.00 
 125    8:30   0.30   65.8    40   11.6   216    16.0    0.00 
 125    8:35   0.31   65.7    40   12.6   217    17.7    0.00 
 125    8:40   0.29   65.7    40   14.8   218    18.9    0.00 
 125    8:45   0.25   65.4    40   15.9   221    20.5    0.00 
 125    8:50   0.25   65.4    40   15.6   224    20.5    0.00 
 125    8:55   0.52   65.7    40   16.6   224    19.4    0.00 
 125    9:00   0.31   65.9    40   18.7   226    21.6    0.00 
 125    9:05   0.22   66.0    40   16.8   223    21.1    0.00 
 125    9:10   0.29   66.0    40   20.4   229    25.6    0.00 
 125    9:15   0.50   66.6    39   20.5   230    26.1    0.00 
 125    9:20   0.15   66.4    39   19.2   228    24.4    0.00 
 125    9:25   0.18   66.3    40   17.4   234    23.3    0.00 
 125    9:30   0.17   66.4    40   17.5   231    22.8    0.00 
 125    9:35   0.16   66.5    39   16.8   233    21.1    0.00 
 125    9:40   0.20   66.9    39   17.5   234    25.0    0.00 
 125    9:45   0.67   67.7    38   16.2   212    23.3    0.00 
 125    9:50   0.77   69.0    37   15.7   210    23.9    0.00 
 125    9:55   0.76   68.3    38   15.9   214    23.3    0.00 
 125   10:00   0.74   68.2    38   16.4   214    24.4    0.00 
 125   10:05   0.75   68.7    37   16.3   217    24.4    0.00 
 125   10:10   0.75   68.7    37   15.3   211    18.9    0.00 
 125   10:15   0.76   68.9    37   12.3   227    18.3    0.00 
 125   10:20   0.77   69.6    36   12.6   221    19.4    0.00 
 125   10:25   0.78   70.1    34   12.6   238    22.2    0.00 
 125   10:30   0.79   70.2    33   18.4   224    25.0    0.00 
 125   10:35   0.80   70.2    34   18.9   227    25.6    0.00 
 125   10:40   0.81   69.9    35   18.7   220    24.4    0.00 
 125   10:45   0.83   70.4    35   16.5   224    25.6    0.00 
 125   10:50   0.84   70.4    34   16.5   224    24.4    0.00 
 125   10:55   0.84   70.6    35   15.5   216    21.6    0.00 
 125   11:00   0.86   70.6    35   14.8   236    21.6    0.00 
 125   11:05   0.67   70.6    35   16.3   247    23.3    0.00 
 125   11:10   0.88   70.8    35   15.8   243    25.6    0.00 
 125   11:15   0.81   71.6    34   17.3   242    23.3    0.00 
 125   11:20   0.90   71.3    34   14.6   222    20.0    0.00 
 125   11:25   1.01   71.5    34   18.9   238    25.0    0.00 
 125   11:30   0.62   71.8    33   12.1   224    20.0    0.00 

Return to Spot Road graphs page.


Western Regional Climate Center,wrcc@dri.edu